Time;durP1;ratioP1;P1;durP2;ratioP2;P2;SDS_P1;SDS_P2;PMS_P1;PMS_P2;Temp;Humidity;BMP_temperature;BMP_pressure;BME280_temperature;BME280_humidity;BME280_pressure;Samples;Min_cycle;Max_cycle;Signal;HPM_P1;HPM_P2
2022/02/08 00:01:11;;;;;;;3.08;0.73;;;;;;;2.81;52.85;98618.50;5052249;28;20116;-74
2022/02/08 00:03:36;;;;;;;3.80;0.88;;;;;;;2.87;52.87;98623.00;5051116;28;20118;-76
2022/02/08 00:06:15;;;;;;;2.05;0.80;;;;;;;2.89;52.47;98619.00;5053532;28;20028;-75
2022/02/08 00:08:40;;;;;;;3.15;0.82;;;;;;;2.95;51.72;98615.38;5037685;28;20043;-75
2022/02/08 00:11:06;;;;;;;3.15;1.10;;;;;;;3.05;51.16;98620.22;5053371;28;20398;-75
2022/02/08 00:13:32;;;;;;;2.72;1.05;;;;;;;2.99;51.16;98621.97;5052240;28;20151;-75
2022/02/08 00:15:58;;;;;;;3.90;0.95;;;;;;;2.98;51.34;98620.31;5053280;28;20029;-74
2022/02/08 00:18:23;;;;;;;3.60;1.75;;;;;;;3.00;51.18;98626.34;5053440;28;20029;-74
2022/02/08 00:20:48;;;;;;;3.72;1.48;;;;;;;3.01;50.73;98625.25;5053553;28;20032;-74
2022/02/08 00:23:14;;;;;;;2.17;1.00;;;;;;;2.97;50.83;98609.75;5052743;28;20017;-75
2022/02/08 00:25:39;;;;;;;2.33;1.05;;;;;;;3.11;50.24;98627.41;5053622;28;20442;-76
2022/02/08 00:28:05;;;;;;;1.23;0.75;;;;;;;3.21;50.00;98642.03;5053192;28;20036;-75
2022/02/08 00:30:30;;;;;;;1.35;0.80;;;;;;;3.10;50.39;98637.38;5051903;28;20024;-75
2022/02/08 00:32:55;;;;;;;3.50;1.10;;;;;;;3.12;50.27;98643.41;5053138;28;20099;-74
2022/02/08 00:35:21;;;;;;;3.40;1.30;;;;;;;3.15;49.97;98636.72;5053343;28;20386;-74
2022/02/08 00:37:47;;;;;;;3.05;1.15;;;;;;;3.11;49.75;98636.34;5053084;28;20112;-74
2022/02/08 00:40:15;;;;;;;2.92;0.80;;;;;;;3.31;48.95;98643.34;5051582;28;20382;-73
2022/02/08 00:42:41;;;;;;;2.42;0.90;;;;;;;3.39;48.66;98632.16;5048094;28;20057;-74
2022/02/08 00:48:07;;;;;;;4.32;1.05;;;;;;;3.24;48.88;98633.44;5050213;28;20059;-73
2022/02/08 00:50:32;;;;;;;1.25;0.50;;;;;;;3.38;48.12;98652.16;5041583;28;20029;-74
2022/02/08 00:52:58;;;;;;;2.20;1.05;;;;;;;3.33;48.36;98633.94;5048673;28;20033;-73
2022/02/08 00:55:23;;;;;;;1.55;0.70;;;;;;;3.23;48.41;98623.69;5047142;28;20017;-73
2022/02/08 00:57:49;;;;;;;2.05;0.80;;;;;;;3.31;48.21;98654.16;5047559;28;20504;-73
2022/02/08 01:00:15;;;;;;;2.17;0.80;;;;;;;3.42;47.58;98643.34;5044248;28;20037;-73
2022/02/08 01:02:40;;;;;;;2.70;0.65;;;;;;;3.54;47.41;98646.09;5049304;28;20028;-72
2022/02/08 01:05:09;;;;;;;0.47;0.40;;;;;;;3.67;46.70;98645.84;5051366;28;20083;-72
2022/02/08 01:07:35;;;;;;;2.45;0.60;;;;;;;3.74;46.69;98654.69;5051160;28;20082;-73
2022/02/08 01:10:02;;;;;;;1.17;0.65;;;;;;;3.66;46.67;98645.03;5050918;28;20083;-73
2022/02/08 01:12:31;;;;;;;2.40;0.47;;;;;;;3.69;46.67;98654.56;5051253;28;20036;-73
2022/02/08 01:14:58;;;;;;;0.82;0.60;;;;;;;3.62;46.42;98657.38;5051080;28;20478;-73
2022/02/08 01:17:25;;;;;;;1.35;0.50;;;;;;;3.72;46.10;98654.94;5051053;28;20478;-73
2022/02/08 01:20:08;;;;;;;0.60;0.40;;;;;;;3.68;46.18;98656.44;5048376;28;20020;-73
2022/02/08 01:22:37;;;;;;;3.08;0.50;;;;;;;3.74;45.98;98646.56;5047451;28;20547;-72
2022/02/08 01:25:05;;;;;;;6.03;0.95;;;;;;;3.86;44.99;98652.81;5049860;28;20017;-72
2022/02/08 01:27:33;;;;;;;2.08;0.70;;;;;;;3.89;44.90;98662.31;5051140;28;20359;-73
2022/02/08 01:30:01;;;;;;;1.95;1.05;;;;;;;3.70;45.31;98664.31;5050656;28;20104;-73
2022/02/08 01:40:28;;;;;;;1.75;0.50;;;;;;;3.51;45.95;98670.91;5051943;28;20033;-73
2022/02/08 01:48:28;;;;;;;2.17;0.57;;;;;;;3.38;47.09;98679.22;5050916;28;20059;-73
2022/02/08 01:50:58;;;;;;;0.88;0.40;;;;;;;3.31;46.40;98678.47;5050332;28;20029;-73
2022/02/08 01:53:23;;;;;;;1.15;0.45;;;;;;;3.24;46.19;98668.59;5051362;28;20036;-73
2022/02/08 01:55:52;;;;;;;1.70;0.40;;;;;;;3.11;46.84;98676.88;5051749;28;20439;-73
2022/02/08 01:58:19;;;;;;;3.30;1.13;;;;;;;3.16;46.70;98671.59;5051006;28;20068;-73
2022/02/08 02:00:44;;;;;;;1.67;0.57;;;;;;;3.24;45.76;98684.81;5050533;28;20021;-73
2022/02/08 02:03:10;;;;;;;1.88;0.77;;;;;;;3.30;45.70;98691.16;5053338;28;20021;-73
2022/02/08 02:05:35;;;;;;;1.75;0.47;;;;;;;3.28;45.32;98698.69;5051489;28;20021;-73
2022/02/08 02:08:01;;;;;;;1.30;0.90;;;;;;;3.24;45.33;98694.78;5051335;28;20482;-74
2022/02/08 02:10:26;;;;;;;0.70;0.43;;;;;;;3.32;45.25;98691.75;5052123;28;20020;-73
2022/02/08 02:13:00;;;;;;;1.33;0.60;;;;;;;3.35;44.38;98706.69;5052361;28;20059;-73
2022/02/08 02:15:28;;;;;;;1.30;0.50;;;;;;;3.51;44.07;98706.84;5051516;28;20024;-73
2022/02/08 02:17:54;;;;;;;1.17;0.43;;;;;;;3.40;43.96;98707.66;5051266;28;20028;-73
2022/02/08 02:20:19;;;;;;;1.55;0.70;;;;;;;3.49;43.39;98710.84;5049497;28;20028;-73
2022/02/08 02:22:45;;;;;;;1.00;0.55;;;;;;;3.65;43.09;98707.47;5050915;28;20021;-73
2022/02/08 02:25:40;;;;;;;1.27;0.60;;;;;;;3.58;42.70;98717.56;5051001;28;20029;-73
2022/02/08 02:28:06;;;;;;;2.40;0.82;;;;;;;3.63;42.77;98720.41;5045947;28;20031;-73
2022/02/08 02:30:34;;;;;;;1.65;0.77;;;;;;;3.55;42.87;98716.16;5050949;28;20024;-73
2022/02/08 02:33:01;;;;;;;2.13;1.00;;;;;;;3.50;43.08;98728.72;5050806;28;20021;-73
2022/02/08 02:35:27;;;;;;;0.70;0.40;;;;;;;3.45;42.67;98729.41;5050196;28;20025;-73
2022/02/08 02:37:58;;;;;;;2.25;0.93;;;;;;;3.48;43.18;98728.94;5052182;28;20025;-73
2022/02/08 02:40:24;;;;;;;3.50;0.90;;;;;;;3.51;42.71;98722.28;5048370;28;20020;-73
2022/02/08 02:42:51;;;;;;;2.08;0.90;;;;;;;3.50;43.17;98716.03;5048512;28;20029;-73
2022/02/08 02:45:19;;;;;;;2.50;0.73;;;;;;;3.50;42.48;98721.44;5050154;28;20059;-73
2022/02/08 02:47:45;;;;;;;2.80;0.60;;;;;;;3.50;42.49;98720.63;5050122;28;20055;-74
2022/02/08 02:50:10;;;;;;;4.15;0.73;;;;;;;3.50;42.66;98728.72;5050168;28;20060;-74
2022/02/08 02:52:36;;;;;;;0.82;0.57;;;;;;;3.41;42.93;98722.84;5050170;28;20059;-73
2022/02/08 02:55:02;;;;;;;2.22;0.70;;;;;;;3.40;42.61;98725.75;5049478;28;20075;-73
2022/02/08 02:57:28;;;;;;;2.25;0.77;;;;;;;3.32;42.58;98717.97;5050853;28;20386;-73
2022/02/08 03:00:04;;;;;;;2.17;0.73;;;;;;;3.23;42.37;98722.88;5050890;28;20052;-73
2022/02/08 03:18:36;;;;;;;1.55;0.80;;;;;;;3.52;41.13;98753.66;5050502;28;20048;-73
2022/02/08 03:21:03;;;;;;;0.68;0.45;;;;;;;3.54;40.82;98759.66;5049111;28;20025;-73
2022/02/08 03:23:29;;;;;;;1.77;0.70;;;;;;;3.54;40.46;98754.25;5050528;28;20112;-73
2022/02/08 03:25:54;;;;;;;1.42;0.70;;;;;;;3.51;40.56;98760.13;5050208;28;20104;-73
2022/02/08 03:28:20;;;;;;;1.15;0.40;;;;;;;3.45;40.86;98766.44;5050163;28;20025;-73
2022/02/08 03:30:46;;;;;;;0.65;0.47;;;;;;;3.37;41.09;98773.00;5049002;28;20033;-73
2022/02/08 03:33:11;;;;;;;1.20;0.57;;;;;;;3.36;41.34;98773.22;5053463;28;20029;-73
2022/02/08 03:35:36;;;;;;;3.40;0.88;;;;;;;3.27;41.36;98774.59;5049435;28;20032;-73
2022/02/08 03:38:05;;;;;;;0.95;0.50;;;;;;;3.18;42.05;98783.03;5050213;28;20364;-73
2022/02/08 03:43:12;;;;;;;1.83;0.80;;;;;;;2.93;42.94;98797.69;5050206;28;20029;-73
2022/02/08 03:45:39;;;;;;;1.75;0.80;;;;;;;2.89;43.33;98816.22;5050255;28;20025;-73
2022/02/08 03:48:05;;;;;;;2.25;0.75;;;;;;;2.75;43.78;98809.31;5050120;28;20466;-73
2022/02/08 03:50:30;;;;;;;3.00;1.10;;;;;;;2.63;44.65;98822.72;5050081;28;20478;-73
2022/02/08 03:52:56;;;;;;;2.33;0.60;;;;;;;2.61;44.51;98815.88;5050183;28;20039;-73
2022/02/08 03:55:21;;;;;;;2.20;0.70;;;;;;;2.59;44.56;98826.09;5050018;28;20028;-73
2022/02/08 03:57:47;;;;;;;2.33;1.00;;;;;;;2.51;45.21;98818.25;5049887;28;20449;-73
2022/02/08 04:00:13;;;;;;;3.38;0.80;;;;;;;2.42;45.46;98809.63;5050024;28;20021;-75
2022/02/08 04:02:57;;;;;;;1.88;0.85;;;;;;;2.37;46.40;98822.16;5048668;28;20027;-74
2022/02/08 04:07:56;;;;;;;2.85;0.95;;;;;;;1.95;47.44;98829.94;5049894;28;20029;-74
2022/02/08 04:10:25;;;;;;;7.13;1.08;;;;;;;1.96;47.78;98830.78;5050308;28;20025;-73
2022/02/08 04:15:49;;;;;;;1.20;0.70;;;;;;;1.87;47.92;98843.72;5050696;28;20065;-73
2022/02/08 04:32:15;;;;;;;4.03;1.10;;;;;;;1.78;48.69;98845.03;5058840;28;20051;-74
2022/02/08 04:43:32;;;;;;;7.22;1.75;;;;;;;1.38;50.70;98857.06;5053449;28;20069;-72
2022/02/08 04:45:39;;;;;;;5.47;1.58;;;;;;;1.41;50.51;98870.09;5049788;28;20132;-73
2022/02/08 04:48:14;;;;;;;4.05;1.30;;;;;;;1.22;51.35;98871.00;5051669;28;20033;-73
2022/02/08 04:50:40;;;;;;;3.08;1.30;;;;;;;1.21;51.97;98863.97;5032704;28;20092;-73
2022/02/08 04:53:14;;;;;;;6.70;1.70;;;;;;;1.12;52.47;98879.53;5033284;28;20021;-73
2022/02/08 04:55:58;;;;;;;8.98;2.47;;;;;;;1.04;52.38;98874.38;5033673;28;20033;-73
2022/02/08 05:46:51;;;;;;;5.30;1.83;;;;;;;0.73;54.94;98931.59;5031712;28;20120;-72
2022/02/08 05:49:25;;;;;;;3.33;1.05;;;;;;;0.60;54.59;98931.59;5031619;28;20088;-72
2022/02/08 05:54:18;;;;;;;4.60;1.35;;;;;;;0.67;54.20;98931.59;5031785;28;20471;-72
2022/02/08 05:56:49;;;;;;;6.30;2.15;;;;;;;0.61;55.00;98933.25;5031540;28;20513;-72
2022/02/08 05:59:15;;;;;;;8.35;3.03;;;;;;;0.45;55.40;98931.81;5030603;28;20033;-72
2022/02/08 06:01:40;;;;;;;8.50;2.00;;;;;;;0.52;54.45;98945.28;5031553;28;20030;-72
2022/02/08 06:04:06;;;;;;;5.90;2.20;;;;;;;0.62;53.99;98940.31;5031435;28;20025;-74
2022/02/08 06:06:32;;;;;;;5.03;2.08;;;;;;;0.70;54.01;98948.16;5030092;28;20028;-73
2022/02/08 06:08:57;;;;;;;6.28;2.08;;;;;;;0.81;55.75;98955.63;5033294;28;20044;-73
2022/02/08 06:11:24;;;;;;;5.40;2.30;;;;;;;0.67;55.85;98953.97;5040042;28;20094;-72
2022/02/08 06:13:52;;;;;;;4.53;1.90;;;;;;;0.57;56.80;98958.94;5050445;28;20017;-72
2022/02/08 06:16:20;;;;;;;8.05;2.67;;;;;;;0.45;56.29;98957.88;5033517;28;20029;-72
2022/02/08 06:18:46;;;;;;;7.68;3.08;;;;;;;0.29;57.34;98955.59;5031039;28;20116;-73
2022/02/08 06:21:12;;;;;;;9.27;2.30;;;;;;;0.32;57.84;98961.38;5030741;28;20029;-73
2022/02/08 06:23:38;;;;;;;7.32;2.60;;;;;;;0.27;58.21;98949.59;5030827;28;20029;-72
2022/02/08 06:26:04;;;;;;;6.00;2.15;;;;;;;0.24;58.64;98963.47;5029260;28;20025;-73
2022/02/08 06:28:29;;;;;;;6.53;2.47;;;;;;;0.26;58.65;98961.38;5050374;28;20492;-73
2022/02/08 06:30:55;;;;;;;6.53;2.63;;;;;;;0.38;58.79;98970.50;5052201;28;20051;-73
2022/02/08 06:33:21;;;;;;;8.98;3.00;;;;;;;0.36;58.33;98973.41;5050473;28;20021;-73
2022/02/08 06:35:46;;;;;;;16.02;5.10;;;;;;;0.41;58.30;98983.53;5050359;28;20056;-73
2022/02/08 06:38:14;;;;;;;12.95;4.32;;;;;;;0.56;57.57;98991.44;5050516;28;20393;-72
2022/02/08 06:40:42;;;;;;;11.32;3.28;;;;;;;0.71;56.93;98986.69;5050624;28;20151;-72
2022/02/08 06:43:07;;;;;;;11.20;3.13;;;;;;;1.00;55.09;99002.44;5050656;28;20035;-73
2022/02/08 06:45:34;;;;;;;6.35;1.90;;;;;;;1.20;54.14;98997.00;5049953;28;20541;-73
2022/02/08 06:48:02;;;;;;;5.45;2.22;;;;;;;1.56;53.27;99000.88;5049735;28;20020;-73
2022/02/08 06:50:27;;;;;;;7.22;2.08;;;;;;;1.94;51.98;99017.09;5050983;28;20079;-72
2022/02/08 06:52:53;;;;;;;10.95;2.42;;;;;;;2.11;51.38;99020.16;5049411;28;20029;-73
2022/02/08 06:55:19;;;;;;;10.80;2.80;;;;;;;2.75;49.33;99014.59;5051190;28;20028;-73
2022/02/08 07:00:38;;;;;;;9.73;4.95;;;;;;;3.10;48.07;99034.66;5030934;28;20044;-72
2022/02/08 07:03:05;;;;;;;5.57;2.45;;;;;;;2.95;48.31;99031.44;5030816;28;20482;-72
2022/02/08 07:05:30;;;;;;;8.63;2.80;;;;;;;2.84;49.11;99034.03;5030620;28;20437;-73
2022/02/08 07:07:56;;;;;;;6.68;2.50;;;;;;;3.17;48.38;99042.69;5030656;28;20025;-73
2022/02/08 07:10:22;;;;;;;7.65;3.38;;;;;;;3.69;47.84;99052.22;5030674;28;20539;-73
2022/02/08 07:12:47;;;;;;;8.30;3.85;;;;;;;4.76;46.15;99049.59;5062954;28;20048;-73
2022/02/08 07:15:14;;;;;;;13.02;4.68;;;;;;;5.61;45.32;99039.22;5032927;28;20479;-73
2022/02/08 07:17:41;;;;;;;11.13;5.07;;;;;;;5.94;44.44;99054.94;5029308;28;20029;-73
2022/02/08 07:20:07;;;;;;;10.32;4.75;;;;;;;5.97;44.54;99045.47;5030638;28;20041;-74
2022/02/08 07:22:33;;;;;;;8.60;4.35;;;;;;;6.20;43.29;99048.16;5030370;28;20067;-75
2022/02/08 07:24:59;;;;;;;10.35;4.43;;;;;;;6.63;42.86;99053.91;5030498;28;20068;-75
2022/02/08 07:27:28;;;;;;;9.55;5.13;;;;;;;6.45;43.20;99057.63;5030737;28;20508;-74
2022/02/08 07:29:54;;;;;;;8.35;4.22;;;;;;;6.50;42.45;99054.19;5062627;28;20437;-73
2022/02/08 07:32:28;;;;;;;8.35;3.88;;;;;;;6.35;42.68;99054.72;5031126;28;20394;-74
2022/02/08 07:35:08;;;;;;;8.70;3.38;;;;;;;6.79;41.43;99046.88;5033439;28;20084;-74
2022/02/08 07:37:46;;;;;;;7.72;3.42;;;;;;;7.82;39.48;99065.44;5032922;28;20037;-78
2022/02/08 07:40:27;;;;;;;6.05;3.38;;;;;;;9.21;36.72;99071.25;5032552;28;20439;-75
2022/02/08 07:42:53;;;;;;;5.70;2.63;;;;;;;10.31;33.85;99064.94;5030872;28;20025;-76
2022/02/08 07:45:19;;;;;;;7.00;3.15;;;;;;;11.62;31.89;99068.81;5030496;28;20493;-76
2022/02/08 07:47:44;;;;;;;6.40;2.78;;;;;;;12.14;30.99;99063.03;5030776;28;20038;-74
2022/02/08 07:50:13;;;;;;;7.07;3.33;;;;;;;13.65;28.47;99083.41;5030756;28;20018;-74
2022/02/08 07:52:44;;;;;;;9.20;3.10;;;;;;;14.58;27.59;99077.53;5033312;28;20108;-76
2022/02/08 07:58:31;;;;;;;8.68;3.33;;;;;;;12.06;29.91;99081.97;5053394;23;20526;-73
2022/02/08 08:00:57;;;;;;;8.70;3.80;;;;;;;11.19;31.47;99089.34;5013787;28;20033;-74
2022/02/08 08:03:22;;;;;;;8.65;3.88;;;;;;;12.48;32.33;99081.56;5013962;28;20429;-74
2022/02/08 08:05:48;;;;;;;7.93;4.43;;;;;;;13.67;28.95;99081.19;5014282;28;20034;-73
2022/02/08 08:08:14;;;;;;;6.00;3.28;;;;;;;13.68;28.80;99087.50;5029894;28;20487;-75
2022/02/08 08:10:44;;;;;;;9.10;3.45;;;;;;;13.50;28.64;99086.25;5036257;28;20030;-75
2022/02/08 08:13:12;;;;;;;10.55;3.42;;;;;;;14.03;28.02;99089.13;5028096;28;20037;-86
2022/02/08 08:15:44;;;;;;;8.60;3.63;;;;;;;11.95;30.77;99096.78;5034787;28;20021;-76
2022/02/08 08:18:25;;;;;;;12.18;4.00;;;;;;;12.74;30.27;99089.44;5031549;28;20076;-74
2022/02/08 08:20:50;;;;;;;6.85;3.55;;;;;;;15.02;26.44;99094.59;5041129;28;20029;-75
2022/02/08 08:23:16;;;;;;;9.38;3.67;;;;;;;14.81;26.18;99098.75;5041972;28;20391;-75
2022/02/08 08:25:41;;;;;;;8.50;3.58;;;;;;;14.62;26.16;99092.38;5029681;28;20025;-75
2022/02/08 08:28:07;;;;;;;11.68;4.22;;;;;;;12.60;28.16;99080.16;5036220;28;20478;-75
2022/02/08 08:30:33;;;;;;;7.32;3.95;;;;;;;9.82;32.32;99088.94;5038343;28;20040;-74
2022/02/08 08:32:59;;;;;;;7.63;3.95;;;;;;;8.34;35.04;99088.53;5044069;28;20017;-77
2022/02/08 08:35:25;;;;;;;6.38;3.17;;;;;;;7.55;36.76;99085.19;5043834;28;20163;-73
2022/02/08 08:37:53;;;;;;;10.63;3.22;;;;;;;7.33;37.60;99084.25;5036744;28;20051;-73
2022/02/08 08:40:36;;;;;;;6.90;3.08;;;;;;;6.94;38.15;99090.66;5049302;28;20026;-73
2022/02/08 08:43:28;;;;;;;7.53;3.88;;;;;;;6.73;38.85;99092.16;5046333;28;20048;-74
2022/02/08 08:53:25;;;;;;;6.40;3.55;;;;;;;7.48;38.43;99076.38;5040164;28;20017;-73
2022/02/08 08:55:52;;;;;;;9.27;3.40;;;;;;;7.81;37.90;99089.13;5047722;28;20028;-73
2022/02/08 08:58:17;;;;;;;11.20;4.32;;;;;;;8.19;37.36;99090.22;5035360;28;20053;-75
2022/02/08 09:00:43;;;;;;;8.70;3.85;;;;;;;7.68;38.09;99083.19;5045630;28;20029;-74
2022/02/08 09:03:08;;;;;;;7.63;3.53;;;;;;;7.55;38.66;99089.78;5042298;28;20146;-74
2022/02/08 09:05:34;;;;;;;7.68;3.15;;;;;;;7.58;38.72;99088.50;5040116;28;20521;-74
2022/02/08 09:07:59;;;;;;;8.10;3.75;;;;;;;8.08;38.26;99075.66;5048115;28;20103;-75
2022/02/08 09:10:32;;;;;;;9.75;3.83;;;;;;;8.58;36.75;99100.03;5036744;28;20029;-73
2022/02/08 09:13:18;;;;;;;7.72;3.20;;;;;;;8.53;36.35;99092.59;5043607;28;20383;-74
2022/02/08 09:15:57;;;;;;;;;;;;;;;8.24;38.23;99087.56;5047190;28;20029;-74
2022/02/08 09:28:56;;;;;;;6.43;2.65;;;;;;;12.63;29.97;99087.81;5027713;28;20553;-74
2022/02/08 09:31:22;;;;;;;5.72;2.95;;;;;;;11.78;30.46;99086.09;5021780;28;20554;-75
2022/02/08 09:33:49;;;;;;;10.30;3.75;;;;;;;10.33;34.40;99088.22;5021689;28;20026;-75
2022/02/08 09:36:16;;;;;;;5.82;2.83;;;;;;;9.83;33.70;99085.97;5026190;28;20080;-75
2022/02/08 09:38:41;;;;;;;5.72;2.72;;;;;;;9.61;33.96;99088.81;5025197;28;20030;-74
2022/02/08 09:41:08;;;;;;;9.75;5.35;;;;;;;9.53;34.43;99096.63;5026306;28;20031;-73
2022/02/08 09:43:37;;;;;;;8.10;4.47;;;;;;;10.32;33.50;99093.94;5021940;28;20022;-74
2022/02/08 09:46:05;;;;;;;6.78;3.20;;;;;;;11.39;31.69;99104.97;5026563;28;20389;-75
2022/02/08 09:48:43;;;;;;;6.47;2.97;;;;;;;11.14;31.58;99089.34;5020737;28;20087;-74
2022/02/08 09:51:11;;;;;;;10.40;3.20;;;;;;;13.05;28.85;99090.09;5022077;28;20032;-75
2022/02/08 09:53:40;;;;;;;7.72;3.00;;;;;;;14.17;26.91;99087.31;5027567;28;20091;-75
2022/02/08 09:56:07;;;;;;;6.47;3.28;;;;;;;15.34;25.62;99104.09;5039589;28;20037;-74
2022/02/08 09:58:33;;;;;;;7.30;3.20;;;;;;;14.77;26.25;99094.09;5048800;28;20041;-75
2022/02/08 10:01:21;;;;;;;6.63;2.95;;;;;;;15.64;24.94;99097.28;5033710;28;20036;-76
2022/02/08 10:03:56;;;;;;;7.82;3.40;;;;;;;15.95;24.46;99099.25;5039065;28;20643;-75
2022/02/08 10:06:23;;;;;;;6.88;3.60;;;;;;;15.81;25.31;99101.16;5034977;28;20021;-77
2022/02/08 10:09:08;;;;;;;8.20;3.72;;;;;;;14.93;24.96;99093.63;5034595;28;20034;-75
2022/02/08 10:22:27;;;;;;;6.80;3.30;;;;;;;16.57;22.79;99088.78;5042431;28;20029;-77
2022/02/08 10:24:53;;;;;;;9.43;3.20;;;;;;;16.32;23.27;99092.00;5034996;28;20018;-75
2022/02/08 10:27:35;;;;;;;7.13;3.28;;;;;;;14.93;25.45;99090.88;5034298;28;20441;-75
2022/02/08 10:38:46;;;;;;;6.57;3.50;;;;;;;17.43;22.32;99073.06;5034205;28;20040;-74
2022/02/08 10:41:19;;;;;;;7.38;3.40;;;;;;;17.65;22.56;99076.72;5038885;28;20139;-75
2022/02/08 10:44:05;;;;;;;8.65;3.85;;;;;;;17.34;22.80;99069.41;5043560;28;20041;-75
2022/02/08 10:46:33;;;;;;;7.85;3.50;;;;;;;16.73;23.14;99065.22;5042109;28;20514;-76
2022/02/08 10:49:13;;;;;;;5.72;3.13;;;;;;;19.05;21.13;99059.31;5038861;28;20028;-75
2022/02/08 10:51:50;;;;;;;6.55;3.55;;;;;;;18.23;21.26;99055.59;5032311;28;20029;-75
2022/02/08 10:54:25;;;;;;;6.90;3.42;;;;;;;18.67;21.12;99058.22;5054889;28;20035;-76
2022/02/08 10:56:58;;;;;;;7.00;3.28;;;;;;;18.58;21.22;99051.84;5053779;28;20025;-75
2022/02/08 10:59:29;;;;;;;6.65;3.28;;;;;;;18.29;21.35;99046.00;5036493;28;20037;-75
2022/02/08 11:02:04;;;;;;;5.93;2.92;;;;;;;17.16;21.99;99045.50;5033988;28;20053;-75
2022/02/08 11:04:50;;;;;;;5.57;2.03;;;;;;;18.01;20.13;99029.53;5030404;28;20021;-74
2022/02/08 11:07:42;;;;;;;5.60;2.63;;;;;;;19.32;19.81;99040.75;5033465;28;20459;-74
2022/02/08 11:12:57;;;;;;;7.57;3.78;;;;;;;19.41;20.56;99034.09;5034747;28;20533;-74
2022/02/08 11:15:38;;;;;;;7.95;3.75;;;;;;;18.41;21.28;99022.09;5033189;28;20021;-74
2022/02/08 11:21:06;;;;;;;9.15;4.10;;;;;;;15.92;23.69;99022.59;5024204;28;20399;-74
2022/02/08 11:23:47;;;;;;;7.72;3.60;;;;;;;16.85;23.19;99015.75;5033886;28;20029;-74
2022/02/08 11:26:31;;;;;;;8.77;3.50;;;;;;;15.42;23.87;99015.97;5037263;28;20026;-74
2022/02/08 11:29:26;;;;;;;5.57;2.63;;;;;;;15.92;21.81;99007.97;5020584;28;20029;-75
2022/02/08 11:32:16;;;;;;;3.95;1.55;;;;;;;16.00;19.84;99001.75;5037230;28;20033;-75
2022/02/08 11:51:42;;;;;;;3.15;1.65;;;;;;;14.17;21.22;99018.53;5038270;28;20029;-72
2022/02/08 12:02:39;;;;;;;4.82;1.38;;;;;;;12.79;22.69;98996.06;5041960;28;20072;-73
2022/02/08 12:07:36;;;;;;;4.45;1.77;;;;;;;11.69;23.97;98998.09;5042724;28;20041;-75
2022/02/08 12:10:16;;;;;;;6.10;1.88;;;;;;;11.55;24.33;98988.81;5038605;28;20036;-75
2022/02/08 14:02:09;;;;;;;5.88;2.10;;;;;;;11.80;24.99;98920.28;5034114;28;20450;-74
2022/02/08 14:07:43;;;;;;;4.55;1.33;;;;;;;11.75;24.29;98909.31;5035757;28;20032;-74
2022/02/08 14:10:16;;;;;;;3.17;1.60;;;;;;;11.87;24.24;98913.66;5036993;28;20103;-75
2022/02/08 14:18:04;;;;;;;4.28;1.88;;;;;;;11.65;24.50;98903.81;5037141;28;20431;-77
2022/02/08 14:23:24;;;;;;;4.53;2.00;;;;;;;11.72;24.82;98909.88;5031381;28;20034;-75
2022/02/08 14:29:09;;;;;;;5.75;1.80;;;;;;;11.75;25.02;98928.50;5031326;28;20040;-75
2022/02/08 14:36:49;;;;;;;4.53;1.95;;;;;;;11.45;25.06;98917.59;5033006;28;20033;-74
2022/02/08 15:08:52;;;;;;;4.82;2.15;;;;;;;10.77;25.28;98903.38;4999696;28;20318;-75
2022/02/08 15:11:17;;;;;;;3.38;1.77;;;;;;;10.79;25.29;98918.72;5029237;28;20053;-75
2022/02/08 15:13:46;;;;;;;4.75;2.13;;;;;;;10.71;25.34;98907.22;5029447;28;20021;-75
2022/02/08 15:18:40;;;;;;;5.55;2.30;;;;;;;10.65;25.25;98910.25;5035441;28;20041;-75
2022/02/08 15:21:10;;;;;;;6.88;2.20;;;;;;;10.51;25.01;98906.38;5033849;28;20406;-75
2022/02/08 15:23:36;;;;;;;4.22;2.08;;;;;;;10.48;25.05;98918.69;5030566;28;20072;-75
2022/02/08 15:26:02;;;;;;;3.85;1.92;;;;;;;10.40;25.52;98916.47;5030333;28;20073;-75
2022/02/08 15:28:28;;;;;;;4.43;1.92;;;;;;;10.36;24.89;98922.78;5030444;28;20017;-75
2022/02/08 15:30:56;;;;;;;3.75;1.95;;;;;;;10.28;25.06;98923.28;5032496;28;20078;-75
2022/02/08 15:33:22;;;;;;;4.10;1.80;;;;;;;10.25;25.15;98921.09;5030997;28;20025;-75
2022/02/08 15:35:48;;;;;;;5.05;2.17;;;;;;;10.16;25.34;98918.06;5030126;28;20033;-75
2022/02/08 15:38:14;;;;;;;4.70;1.98;;;;;;;10.05;25.78;98910.91;5030335;28;20021;-75
2022/02/08 15:40:39;;;;;;;3.97;2.10;;;;;;;10.01;25.79;98915.25;5029202;28;20018;-75
2022/02/08 15:43:05;;;;;;;5.15;1.90;;;;;;;9.92;25.60;98908.66;5029843;28;20370;-75
2022/02/08 15:45:39;;;;;;;4.85;1.98;;;;;;;9.92;25.64;98919.59;5028406;28;20079;-74
2022/02/08 15:48:09;;;;;;;4.50;2.03;;;;;;;9.86;25.53;98916.03;5030151;28;20883;-74
2022/02/08 15:50:49;;;;;;;4.90;2.22;;;;;;;9.81;25.45;98918.72;5030296;28;20029;-74
2022/02/08 15:53:30;;;;;;;4.93;1.98;;;;;;;9.78;25.73;98929.34;5030083;28;20510;-74
2022/02/08 16:01:14;;;;;;;4.45;2.20;;;;;;;9.42;26.12;98904.59;5029919;28;20064;-74
2022/02/08 16:11:46;;;;;;;4.00;1.98;;;;;;;9.10;26.59;98906.56;5030247;28;20478;-75
2022/02/08 16:20:10;;;;;;;5.38;2.30;;;;;;;8.73;27.45;98906.56;5033925;28;20515;-74
2022/02/08 16:22:59;;;;;;;6.28;2.10;;;;;;;8.59;27.90;98903.44;5013647;28;20120;-75
2022/02/08 16:47:51;;;;;;;7.78;3.50;;;;;;;7.83;29.36;98900.97;5001336;28;20115;-75
2022/02/08 16:55:22;;;;;;;6.78;3.45;;;;;;;7.81;29.22;98914.00;5033104;28;20033;-75
2022/02/08 17:00:42;;;;;;;8.43;3.35;;;;;;;7.70;29.14;98913.06;5011952;28;20038;-74
2022/02/08 17:03:08;;;;;;;6.30;3.40;;;;;;;7.66;29.27;98913.81;5026808;28;20022;-74
2022/02/08 17:05:36;;;;;;;6.75;2.60;;;;;;;7.72;29.46;98912.81;5022530;28;20061;-74
2022/02/08 17:08:02;;;;;;;7.13;3.33;;;;;;;7.63;29.51;98925.22;5025633;28;20399;-75
2022/02/08 17:13:52;;;;;;;7.97;3.70;;;;;;;7.49;29.57;98916.56;5027731;28;20475;-75
2022/02/08 17:35:21;;;;;;;9.63;4.25;;;;;;;7.52;30.22;98935.97;5031598;28;20044;-74
2022/02/08 17:48:14;;;;;;;10.60;3.72;;;;;;;7.48;29.34;98939.44;5033263;28;20670;-75
2022/02/08 17:50:40;;;;;;;9.25;4.03;;;;;;;7.43;29.91;98945.63;5045964;28;20025;-74
2022/02/08 17:53:05;;;;;;;9.00;3.83;;;;;;;7.38;29.73;98948.28;5045044;28;20108;-74
2022/02/08 17:55:31;;;;;;;7.88;3.78;;;;;;;7.38;30.00;98956.47;5042518;28;20032;-74
2022/02/08 17:57:57;;;;;;;9.10;4.70;;;;;;;7.36;29.83;98958.59;5041861;28;20482;-75
2022/02/08 18:00:23;;;;;;;8.68;4.07;;;;;;;7.18;30.62;98947.16;5035275;28;20025;-74
2022/02/08 18:02:48;;;;;;;10.90;5.20;;;;;;;7.17;30.63;98951.78;5044648;28;20024;-74
2022/02/08 18:05:15;;;;;;;7.75;3.92;;;;;;;7.06;30.98;98954.56;5044018;28;20398;-73
2022/02/08 18:07:42;;;;;;;11.35;4.93;;;;;;;6.91;31.17;98949.72;5041899;28;20101;-74
2022/02/08 18:10:09;;;;;;;10.05;4.78;;;;;;;6.89;31.44;98957.31;5030121;28;20900;-74
2022/02/08 18:12:37;;;;;;;12.20;5.22;;;;;;;6.74;31.74;98943.44;5039960;28;20456;-74
2022/02/08 18:15:08;;;;;;;12.70;5.60;;;;;;;6.67;32.81;98961.81;5039097;28;20175;-74
2022/02/08 18:17:45;;;;;;;15.25;6.10;;;;;;;6.53;33.69;98964.03;5047932;28;20025;-78
2022/02/08 18:20:40;;;;;;;15.10;6.70;;;;;;;6.41;33.30;98963.25;5019653;28;20080;-74
2022/02/08 18:23:17;;;;;;;16.85;6.68;;;;;;;6.27;33.86;98965.44;5032573;28;20140;-73
2022/02/08 18:28:31;;;;;;;18.17;8.30;;;;;;;6.12;34.62;98959.72;5046471;28;20985;-74
2022/02/08 19:17:11;;;;;;;8.27;3.60;;;;;;;6.21;34.10;98981.88;5023952;28;20033;-76
2022/02/08 19:22:09;;;;;;;7.82;3.65;;;;;;;6.32;33.74;98981.03;5023889;28;20041;-74
2022/02/08 19:24:35;;;;;;;8.73;3.72;;;;;;;6.34;33.74;98979.72;5021784;28;20056;-75
2022/02/08 19:27:02;;;;;;;10.90;3.83;;;;;;;6.34;33.93;98985.13;5026699;28;20057;-75
2022/02/08 19:29:33;;;;;;;11.25;3.30;;;;;;;6.34;34.34;98978.88;5024914;28;20026;-73
2022/02/08 19:31:59;;;;;;;8.13;3.70;;;;;;;6.29;34.52;98976.91;5026829;28;20410;-74
2022/02/08 19:34:25;;;;;;;7.97;3.90;;;;;;;6.23;34.93;98988.75;5017843;28;20037;-75
2022/02/08 19:36:52;;;;;;;9.18;4.15;;;;;;;6.14;34.79;98984.72;5019343;28;20048;-76
2022/02/08 19:39:18;;;;;;;8.40;3.90;;;;;;;6.03;35.33;98982.88;5021152;28;20053;-77
2022/02/08 19:41:45;;;;;;;10.57;3.78;;;;;;;6.08;35.34;98985.69;5023785;28;20053;-77
2022/02/08 19:44:11;;;;;;;8.35;4.25;;;;;;;5.99;35.57;98986.31;5025530;28;20028;-77
2022/02/08 19:46:37;;;;;;;9.95;4.45;;;;;;;5.93;36.08;98982.66;5027278;28;20013;-85
2022/02/08 19:49:04;;;;;;;16.70;5.00;;;;;;;5.77;36.47;98994.25;5016422;28;20014;-74
2022/02/08 19:51:29;;;;;;;13.18;5.28;;;;;;;5.66;37.09;98992.38;5021048;28;20026;-72
2022/02/08 19:53:57;;;;;;;12.48;5.10;;;;;;;5.50;37.36;98993.94;5027617;28;20029;-73